Terminal Aerodrome Forecast
Issued by NWS Cleveland, OH

Home | Current Version | Previous Version | Graphics & Text | Print | Product List | Glossary Off
Versions: 1 2 3 4 5 6 7 8 9 10 11 12 13 14 15 16

000
FTUS41 KCLE 282344 CCA
TAFYNG
TAF COR
KYNG 282344Z 2900/2924 22008KT P6SM VCSH SCT070 BKN120
     FM290300 20005KT P6SM SCT070 SCT120
     FM290900 VRB03KT 6SM BR SCT250
     FM291500 20005KT P6SM VCSH BKN060 BKN120=

USA.gov is the U.S. government's official web portal to all federal, state and local government web resources and services.